Terminal Aerodrome Forecast
Issued by NWS North Platte, NE

Home | Current Version | Previous Version | Text Only | Print | Product List | Glossary On
Versions: 1 2 3 4 5 6 7 8 9 10 11 12 13 14 15 16 17 18 19
336
FTUS43 KLBF 211729
TAFVTN
TAF
KVTN 211729Z 2118/2218 31009KT P6SM SCT150
     FM212100 32012KT P6SM SCT250
     FM220000 32010KT P6SM FEW250
     FM221500 VRB06KT P6SM SCT150=

USA.gov is the U.S. government's official web portal to all federal, state and local government web resources and services.